Terminal Aerodrome Forecast
Issued by NWS North Platte, NE

Home | Current Version | Previous Version | Graphics & Text | Print | Product List | Glossary On
Versions: 1 2 3 4 5 6 7 8 9 10 11 12 13 14 15 16 17 18 19 20 21 22 23
000
FTUS43 KLBF 061500 AAA
TAFVTN
TAF AMD
KVTN 061522Z 0615/0712 36012G19KT 4SM HZ SCT015 BKN025
     FM061800 36014G21KT P6SM SCT025 BKN050
     FM070000 02011KT P6SM SCT100=

USA.gov is the U.S. government's official web portal to all federal, state and local government web resources and services.